createdAt,value
2022-09-23T00:01:05.431Z,3.15
2022-09-23T00:03:33.316Z,3.72
2022-09-23T00:06:05.371Z,3.65
2022-09-23T00:08:32.484Z,8.13
2022-09-23T00:11:09.193Z,3.40
2022-09-23T00:13:37.058Z,6.38
2022-09-23T00:16:05.331Z,3.95
2022-09-23T00:18:32.635Z,4.43
2022-09-23T00:21:03.939Z,3.70
2022-09-23T00:23:30.795Z,3.53
2022-09-23T00:25:59.156Z,3.97
2022-09-23T00:28:25.830Z,3.20
2022-09-23T00:30:52.836Z,3.22
2022-09-23T00:33:19.672Z,5.28
2022-09-23T00:35:47.326Z,3.53
2022-09-23T00:38:14.351Z,4.32
2022-09-23T00:40:46.057Z,4.70
2022-09-23T00:43:17.510Z,4.60
2022-09-23T00:45:48.595Z,5.28
2022-09-23T00:48:18.946Z,4.70
2022-09-23T00:50:51.026Z,3.35
2022-09-23T00:53:22.536Z,3.10
2022-09-23T00:55:57.245Z,3.45
2022-09-23T00:58:27.951Z,4.03
2022-09-23T01:00:55.431Z,5.95
2022-09-23T01:03:22.996Z,3.50
2022-09-23T01:05:50.628Z,4.35
2022-09-23T01:08:18.194Z,5.25
2022-09-23T01:11:02.526Z,4.40
2022-09-23T01:13:43.400Z,4.22
2022-09-23T01:16:13.177Z,4.30
2022-09-23T01:19:05.410Z,3.90
2022-09-23T01:21:57.138Z,4.55
2022-09-23T01:25:01.903Z,4.32
2022-09-23T01:27:59.652Z,4.55
2022-09-23T01:31:06.860Z,4.00
2022-09-23T01:33:53.228Z,3.97
2022-09-23T01:36:43.045Z,4.03
2022-09-23T01:39:35.170Z,5.05
2022-09-23T01:42:17.669Z,3.95
2022-09-23T01:44:56.379Z,6.03
2022-09-23T01:47:30.580Z,4.10
2022-09-23T01:50:03.186Z,4.32
2022-09-23T01:52:44.528Z,5.22
2022-09-23T01:55:22.514Z,4.75
2022-09-23T01:58:15.722Z,7.68
2022-09-23T02:01:09.136Z,5.15
2022-09-23T02:03:47.352Z,4.30
2022-09-23T02:06:23.284Z,3.92
2022-09-23T02:08:56.484Z,3.70
2022-09-23T02:11:23.896Z,4.28
2022-09-23T02:14:03.678Z,4.57
2022-09-23T02:16:47.596Z,4.10
2022-09-23T02:19:35.459Z,3.85
2022-09-23T02:22:37.034Z,3.92
2022-09-23T02:25:03.923Z,3.40
2022-09-23T02:27:50.193Z,4.05
2022-09-23T02:30:28.469Z,3.78
2022-09-23T02:33:20.583Z,3.92
2022-09-23T02:35:55.243Z,3.72
2022-09-23T02:38:43.876Z,5.68
2022-09-23T02:41:24.668Z,4.43
2022-09-23T02:44:12.727Z,3.78
2022-09-23T02:46:39.761Z,4.80
2022-09-23T02:49:12.588Z,4.72
2022-09-23T02:51:40.387Z,4.85
2022-09-23T02:54:10.646Z,4.97
2022-09-23T02:56:37.867Z,7.35
2022-09-23T02:59:05.761Z,5.80
2022-09-23T03:02:05.395Z,6.13
2022-09-23T03:04:50.799Z,6.85
2022-09-23T03:07:24.996Z,7.53
2022-09-23T03:10:03.370Z,6.45
2022-09-23T03:12:39.206Z,7.35
2022-09-23T03:15:18.419Z,6.55
2022-09-23T03:18:07.339Z,6.32
2022-09-23T03:20:38.286Z,8.40
2022-09-23T03:23:09.254Z,6.63
2022-09-23T03:25:39.699Z,8.35
2022-09-23T03:28:08.578Z,7.28
2022-09-23T03:30:36.723Z,8.38
2022-09-23T03:33:08.729Z,8.98
2022-09-23T03:35:59.285Z,8.75
2022-09-23T03:38:32.985Z,8.15
2022-09-23T03:41:04.174Z,10.98
2022-09-23T03:43:34.025Z,9.95
2022-09-23T03:46:03.459Z,8.02
2022-09-23T03:48:30.200Z,8.00
2022-09-23T03:50:56.980Z,9.20
2022-09-23T03:53:23.906Z,8.75
2022-09-23T03:55:50.548Z,9.05
2022-09-23T03:58:17.843Z,11.82
2022-09-23T04:00:45.163Z,9.40
2022-09-23T04:03:12.112Z,9.88
2022-09-23T04:05:38.910Z,9.40
2022-09-23T04:08:05.694Z,9.00
2022-09-23T04:10:32.419Z,9.10
2022-09-23T04:12:59.163Z,9.85
2022-09-23T04:15:25.977Z,9.05
2022-09-23T04:17:52.716Z,10.32
2022-09-23T04:20:20.580Z,9.48
2022-09-23T04:22:47.228Z,9.55
2022-09-23T04:25:13.961Z,10.20
2022-09-23T04:27:40.699Z,10.35
2022-09-23T04:30:07.994Z,11.00
2022-09-23T04:32:34.706Z,10.38
2022-09-23T04:35:01.347Z,10.40
2022-09-23T04:37:28.148Z,10.55
2022-09-23T04:39:55.747Z,10.32
2022-09-23T04:42:22.719Z,10.35
2022-09-23T04:44:49.437Z,11.93
2022-09-23T04:47:16.212Z,10.35
2022-09-23T04:49:42.877Z,10.85
2022-09-23T04:52:09.527Z,11.32
2022-09-23T04:54:36.860Z,9.35
2022-09-23T04:57:03.765Z,10.43
2022-09-23T04:59:30.503Z,10.52
2022-09-23T05:01:57.184Z,9.75
2022-09-23T05:04:23.852Z,10.27
2022-09-23T05:06:50.523Z,9.63
2022-09-23T05:09:17.801Z,9.73
2022-09-23T05:11:45.575Z,9.13
2022-09-23T05:14:13.029Z,9.75
2022-09-23T05:16:40.537Z,9.52
2022-09-23T05:19:07.430Z,9.30
2022-09-23T05:21:34.238Z,9.68
2022-09-23T05:24:01.343Z,9.45
2022-09-23T05:26:30.793Z,10.65
2022-09-23T05:28:58.469Z,10.32
2022-09-23T05:31:27.900Z,10.30
2022-09-23T05:34:03.470Z,10.07
2022-09-23T05:36:35.739Z,9.95
2022-09-23T05:39:05.699Z,10.40
2022-09-23T05:41:33.918Z,10.40
2022-09-23T05:44:01.102Z,10.13
2022-09-23T05:46:29.895Z,10.13
2022-09-23T05:49:06.754Z,10.13
2022-09-23T05:51:35.729Z,10.15
2022-09-23T05:54:04.068Z,10.10
2022-09-23T05:56:32.710Z,9.40
2022-09-23T05:59:01.433Z,11.57
2022-09-23T06:03:59.183Z,10.93
2022-09-23T06:06:36.064Z,11.20
2022-09-23T06:09:03.296Z,11.43
2022-09-23T06:11:32.041Z,10.57
2022-09-23T06:16:31.656Z,11.70
2022-09-23T06:19:05.063Z,17.45
2022-09-23T06:21:34.026Z,10.02
2022-09-23T06:24:00.971Z,10.73
2022-09-23T06:26:29.088Z,9.57
2022-09-23T06:28:55.746Z,13.02
2022-09-23T06:31:22.459Z,10.50
2022-09-23T06:33:50.554Z,9.90
2022-09-23T06:36:36.619Z,10.23
2022-09-23T06:39:30.097Z,10.73
2022-09-23T06:41:56.823Z,10.77
2022-09-23T06:44:23.739Z,10.60
2022-09-23T06:46:51.125Z,10.65
2022-09-23T06:49:18.226Z,11.02
2022-09-23T06:51:44.892Z,11.18
2022-09-23T06:54:11.689Z,13.25
2022-09-23T06:56:39.672Z,10.85
2022-09-23T06:59:09.607Z,12.10
2022-09-23T07:01:36.526Z,10.38
2022-09-23T07:04:03.652Z,10.60
2022-09-23T07:06:30.395Z,11.30
2022-09-23T07:08:57.103Z,11.35
2022-09-23T07:11:23.852Z,10.85
2022-09-23T07:13:50.630Z,11.68
2022-09-23T07:16:17.588Z,11.32
2022-09-23T07:18:45.117Z,11.13
2022-09-23T07:21:15.333Z,10.88
2022-09-23T07:23:43.484Z,11.05
2022-09-23T07:26:10.684Z,10.90
2022-09-23T07:28:39.742Z,11.75
2022-09-23T07:31:15.114Z,10.95
2022-09-23T07:33:45.906Z,11.27
2022-09-23T07:36:18.736Z,11.63
2022-09-23T07:38:46.597Z,12.02
2022-09-23T07:41:18.643Z,10.63
2022-09-23T07:43:47.632Z,10.73
2022-09-23T07:46:17.863Z,12.13
2022-09-23T07:48:45.972Z,11.85
2022-09-23T07:51:15.394Z,11.93
2022-09-23T07:53:42.116Z,11.75
2022-09-23T07:56:08.919Z,12.55
2022-09-23T07:58:35.713Z,13.23
2022-09-23T08:01:04.670Z,10.93
2022-09-23T08:03:31.491Z,15.57
2022-09-23T08:06:12.640Z,11.98
2022-09-23T08:08:43.402Z,11.50
2022-09-23T08:11:13.199Z,11.15
2022-09-23T08:13:40.681Z,11.82
2022-09-23T08:16:07.688Z,10.55
2022-09-23T08:18:34.630Z,11.48
2022-09-23T08:21:01.503Z,10.80
2022-09-23T08:23:33.279Z,10.32
2022-09-23T08:26:02.444Z,11.23
2022-09-23T08:28:29.279Z,10.25
2022-09-23T08:30:57.089Z,9.68
2022-09-23T08:33:24.444Z,9.90
2022-09-23T08:35:52.334Z,11.43
2022-09-23T08:38:20.354Z,9.82
2022-09-23T08:40:49.477Z,9.85
2022-09-23T08:43:28.195Z,9.60
2022-09-23T08:48:30.514Z,9.13
2022-09-23T08:51:08.294Z,9.13
2022-09-23T08:53:38.265Z,12.10
2022-09-23T08:56:17.888Z,8.55
2022-09-23T08:59:21.134Z,9.85
2022-09-23T09:01:51.484Z,10.32
2022-09-23T09:04:32.955Z,11.98
2022-09-23T09:07:38.814Z,9.45
2022-09-23T09:10:18.181Z,8.63
2022-09-23T09:15:21.106Z,8.50
2022-09-23T09:17:53.827Z,8.90
2022-09-23T09:20:20.599Z,8.50
2022-09-23T09:23:02.662Z,9.05
2022-09-23T09:25:46.028Z,8.13
2022-09-23T09:28:36.409Z,10.18
2022-09-23T09:31:22.462Z,10.23
2022-09-23T09:34:20.257Z,8.98
2022-09-23T09:37:06.167Z,13.48
2022-09-23T09:39:35.334Z,9.82
2022-09-23T09:42:03.382Z,8.60
2022-09-23T09:44:49.752Z,8.38
2022-09-23T09:47:47.302Z,14.25
2022-09-23T09:50:39.485Z,8.43
2022-09-23T09:53:36.338Z,8.07
2022-09-23T09:56:12.962Z,7.55
2022-09-23T09:58:50.410Z,7.82
2022-09-23T10:01:31.876Z,8.35
2022-09-23T10:04:01.484Z,8.82
2022-09-23T10:06:32.548Z,8.13
2022-09-23T10:09:18.898Z,9.13
2022-09-23T10:12:15.802Z,8.55
2022-09-23T10:14:43.284Z,7.95
2022-09-23T10:17:19.216Z,8.68
2022-09-23T10:19:49.781Z,7.97
2022-09-23T10:22:26.318Z,8.10
2022-09-23T10:25:03.652Z,12.80
2022-09-23T10:27:33.815Z,9.00
2022-09-23T10:30:04.706Z,8.05
2022-09-23T10:32:32.726Z,10.13
2022-09-23T10:35:09.017Z,8.65
2022-09-23T10:37:44.182Z,7.70
2022-09-23T10:40:44.396Z,13.80
2022-09-23T10:43:56.097Z,10.80
2022-09-23T10:46:38.325Z,9.55
2022-09-23T10:49:31.603Z,9.77
2022-09-23T10:52:32.547Z,7.30
2022-09-23T10:55:32.897Z,7.85
2022-09-23T10:58:28.739Z,8.07
2022-09-23T11:01:31.035Z,11.30
2022-09-23T11:04:44.715Z,10.73
2022-09-23T11:07:39.113Z,9.88
2022-09-23T11:10:18.431Z,9.25
2022-09-23T11:13:04.177Z,11.55
2022-09-23T11:15:36.523Z,9.27
2022-09-23T11:18:30.284Z,13.93
2022-09-23T11:21:09.003Z,12.07
2022-09-23T11:24:29.309Z,11.10
2022-09-23T11:27:04.970Z,9.32
2022-09-23T11:29:56.430Z,9.75
2022-09-23T11:32:53.757Z,9.68
2022-09-23T11:35:28.253Z,9.83
2022-09-23T11:38:05.794Z,9.43
2022-09-23T11:40:36.398Z,13.13
2022-09-23T11:43:23.555Z,11.82
2022-09-23T11:46:01.171Z,10.68
2022-09-23T11:48:31.117Z,11.30
2022-09-23T11:51:12.210Z,7.93
2022-09-23T11:54:06.239Z,7.57
2022-09-23T11:56:47.269Z,10.70
2022-09-23T12:02:36.528Z,10.25
2022-09-23T12:05:12.919Z,6.55
2022-09-23T12:07:56.677Z,8.32
2022-09-23T12:10:45.839Z,5.57
2022-09-23T12:13:19.385Z,7.45
2022-09-23T12:15:57.734Z,7.28
2022-09-23T12:18:53.957Z,9.02
2022-09-23T12:21:49.138Z,5.68
2022-09-23T12:24:43.274Z,6.75
2022-09-23T12:27:24.996Z,11.68
2022-09-23T12:30:00.797Z,5.97
2022-09-23T12:32:28.548Z,5.88
2022-09-23T12:34:56.275Z,4.97
2022-09-23T12:37:29.117Z,6.63
2022-09-23T12:40:02.034Z,7.25
2022-09-23T12:42:31.227Z,5.70
2022-09-23T12:45:19.309Z,7.75
2022-09-23T12:47:46.245Z,16.20
2022-09-23T12:51:00.160Z,6.57
2022-09-23T12:53:36.075Z,7.00
2022-09-23T12:56:19.352Z,5.45
2022-09-23T12:58:50.884Z,5.47
2022-09-23T13:01:20.921Z,7.60
2022-09-23T13:04:09.576Z,7.93
2022-09-23T13:06:46.703Z,7.07
2022-09-23T13:09:42.666Z,3.70
2022-09-23T13:12:25.586Z,6.25
2022-09-23T13:14:55.659Z,8.20
2022-09-23T13:17:34.279Z,6.15
2022-09-23T13:20:03.429Z,10.20
2022-09-23T13:23:02.124Z,5.85
2022-09-23T13:25:34.632Z,8.90
2022-09-23T13:28:02.660Z,3.83
2022-09-23T13:30:29.362Z,3.65
2022-09-23T13:33:16.811Z,4.80
2022-09-23T13:35:51.295Z,5.90
2022-09-23T13:38:26.081Z,9.88
2022-09-23T13:40:57.742Z,4.97
2022-09-23T13:43:29.383Z,6.28
2022-09-23T13:45:56.085Z,6.35
2022-09-23T13:48:25.392Z,4.20
2022-09-23T13:50:53.480Z,5.65
2022-09-23T13:53:30.060Z,3.13
2022-09-23T13:56:13.567Z,6.00
2022-09-23T13:58:40.548Z,4.00
2022-09-23T14:01:38.645Z,5.45
2022-09-23T14:04:05.394Z,6.93
2022-09-23T14:06:39.107Z,6.03
2022-09-23T14:09:06.544Z,5.95
2022-09-23T14:11:35.428Z,5.95
2022-09-23T14:14:07.633Z,5.03
2022-09-23T14:16:38.236Z,7.88
2022-09-23T14:19:06.719Z,7.82
2022-09-23T14:21:36.168Z,10.27
2022-09-23T14:24:23.417Z,8.90
2022-09-23T14:26:54.471Z,8.93
2022-09-23T14:29:29.332Z,10.13
2022-09-23T14:32:03.593Z,10.23
2022-09-23T14:35:05.391Z,14.38
2022-09-23T14:37:56.799Z,9.30
2022-09-23T14:40:28.820Z,9.57
2022-09-23T14:43:00.177Z,6.97
2022-09-23T14:45:32.558Z,8.73
2022-09-23T14:48:05.879Z,8.90
2022-09-23T14:50:48.524Z,12.35
2022-09-23T14:53:24.305Z,14.02
2022-09-23T14:55:57.434Z,8.48
2022-09-23T14:58:28.637Z,11.15
2022-09-23T15:01:00.513Z,9.40
2022-09-23T15:03:28.761Z,8.00
2022-09-23T15:06:08.534Z,11.15
2022-09-23T15:08:36.393Z,8.60
2022-09-23T15:11:07.899Z,9.13
2022-09-23T15:13:39.889Z,9.02
2022-09-23T15:16:07.324Z,8.10
2022-09-23T15:18:37.257Z,12.45
2022-09-23T15:21:18.433Z,14.05
2022-09-23T15:23:48.321Z,31.55
2022-09-23T15:26:20.143Z,9.50
2022-09-23T15:28:48.035Z,9.60
2022-09-23T15:31:20.003Z,8.73
2022-09-23T15:33:50.683Z,15.52
2022-09-23T15:36:28.273Z,11.70
2022-09-23T15:39:08.651Z,10.13
2022-09-23T15:41:35.397Z,12.85
2022-09-23T15:44:28.589Z,8.07
2022-09-23T15:46:59.985Z,12.27
2022-09-23T15:49:36.476Z,9.20
2022-09-23T15:52:05.343Z,6.80
2022-09-23T15:54:32.625Z,7.13
2022-09-23T15:57:01.096Z,7.50
2022-09-23T15:59:28.919Z,6.47
2022-09-23T16:01:56.752Z,7.10
2022-09-23T16:04:23.735Z,10.10
2022-09-23T16:06:50.431Z,10.15
2022-09-23T16:09:17.083Z,7.07
2022-09-23T16:11:46.304Z,12.00
2022-09-23T16:14:17.694Z,7.57
2022-09-23T16:16:47.674Z,7.88
2022-09-23T16:19:16.200Z,8.32
2022-09-23T16:21:43.971Z,8.75
2022-09-23T16:24:17.846Z,7.27
2022-09-23T16:26:46.564Z,10.35
2022-09-23T16:29:13.228Z,10.75
2022-09-23T16:31:40.006Z,9.75
2022-09-23T16:34:07.004Z,7.93
2022-09-23T16:36:39.524Z,7.05
2022-09-23T16:39:09.496Z,8.93
2022-09-23T16:41:37.275Z,11.32
2022-09-23T16:44:07.306Z,10.17
2022-09-23T16:46:34.867Z,10.20
2022-09-23T16:49:01.800Z,11.73
2022-09-23T16:51:30.830Z,7.35
2022-09-23T16:53:59.353Z,10.82
2022-09-23T16:58:56.623Z,7.53
2022-09-23T17:01:47.596Z,9.70
2022-09-23T17:04:16.016Z,11.65
2022-09-23T17:06:44.285Z,7.57
2022-09-23T17:09:11.755Z,7.55
2022-09-23T17:11:38.453Z,7.50
2022-09-23T17:14:05.629Z,9.88
2022-09-23T17:16:34.406Z,14.98
2022-09-23T17:19:11.147Z,10.13
2022-09-23T17:21:38.192Z,11.77
2022-09-23T17:24:05.321Z,11.52
2022-09-23T17:26:32.456Z,10.90
2022-09-23T17:29:01.527Z,14.30
2022-09-23T17:31:28.427Z,12.88
2022-09-23T17:33:55.352Z,12.85
2022-09-23T17:36:22.188Z,12.02
2022-09-23T17:38:53.379Z,13.48
2022-09-23T17:41:20.843Z,13.50
2022-09-23T17:43:48.068Z,15.05
2022-09-23T17:46:18.618Z,15.00
2022-09-23T17:48:46.205Z,15.38
2022-09-23T17:51:15.786Z,15.60
2022-09-23T17:53:45.334Z,20.63
2022-09-23T17:56:22.935Z,17.60
2022-09-23T17:58:50.087Z,18.00
2022-09-23T18:01:19.988Z,17.98
2022-09-23T18:03:47.384Z,17.83
2022-09-23T18:06:21.873Z,18.98
2022-09-23T18:08:50.137Z,19.80
2022-09-23T18:11:26.959Z,19.58
2022-09-23T18:13:54.746Z,21.55
2022-09-23T18:16:24.196Z,21.92
2022-09-23T18:18:56.172Z,22.13
2022-09-23T18:21:25.036Z,22.45
2022-09-23T18:23:51.908Z,20.15
2022-09-23T18:26:20.799Z,19.67
2022-09-23T18:28:48.081Z,22.38
2022-09-23T18:31:15.778Z,20.27
2022-09-23T18:33:42.590Z,20.57
2022-09-23T18:36:09.886Z,19.25
2022-09-23T18:38:36.553Z,20.70
2022-09-23T18:41:03.370Z,21.20
2022-09-23T18:43:37.543Z,18.70
2022-09-23T18:46:11.421Z,20.05
2022-09-23T18:48:56.595Z,21.17
2022-09-23T18:51:25.751Z,20.17
2022-09-23T18:53:57.558Z,20.38
2022-09-23T18:56:37.082Z,20.80
2022-09-23T18:59:07.460Z,22.10
2022-09-23T19:01:35.090Z,21.90
2022-09-23T19:04:02.287Z,21.20
2022-09-23T19:06:31.385Z,22.30
2022-09-23T19:08:58.133Z,21.95
2022-09-23T19:11:25.497Z,24.40
2022-09-23T19:13:57.559Z,23.50
2022-09-23T19:16:26.053Z,23.60
2022-09-23T19:21:22.063Z,23.52
2022-09-23T19:23:51.118Z,22.90
2022-09-23T19:26:20.577Z,24.30
2022-09-23T19:28:50.204Z,24.58
2022-09-23T19:31:22.980Z,24.70
2022-09-23T19:34:14.264Z,23.67
2022-09-23T19:36:43.272Z,26.38
2022-09-23T19:39:23.321Z,24.60
2022-09-23T19:41:52.272Z,23.20
2022-09-23T19:44:20.071Z,24.75
2022-09-23T19:46:53.506Z,23.73
2022-09-23T19:49:24.415Z,23.55
2022-09-23T19:51:51.889Z,25.35
2022-09-23T19:54:21.616Z,26.25
2022-09-23T19:56:49.924Z,25.30
2022-09-23T19:59:19.587Z,26.73
2022-09-23T20:01:48.066Z,27.60
2022-09-23T20:06:42.951Z,26.52
2022-09-23T20:09:09.951Z,26.20
2022-09-23T20:11:36.747Z,26.25
2022-09-23T20:14:05.830Z,26.33
2022-09-23T20:16:35.099Z,26.77
2022-09-23T20:19:04.074Z,27.00
2022-09-23T20:21:31.348Z,24.75
2022-09-23T20:23:58.167Z,26.08
2022-09-23T20:26:44.184Z,26.50
2022-09-23T20:29:11.475Z,24.73
2022-09-23T20:31:40.348Z,25.55
2022-09-23T20:34:08.145Z,26.00
2022-09-23T20:36:35.956Z,25.53
2022-09-23T20:39:05.964Z,26.98
2022-09-23T20:41:37.773Z,28.77
2022-09-23T20:44:07.546Z,27.10
2022-09-23T20:46:34.844Z,28.08
2022-09-23T20:49:02.190Z,28.85
2022-09-23T20:51:29.410Z,27.88
2022-09-23T20:53:56.231Z,27.35
2022-09-23T20:56:23.600Z,28.27
2022-09-23T20:58:52.488Z,26.13
2022-09-23T21:01:19.806Z,27.70
2022-09-23T21:03:49.205Z,28.95
2022-09-23T21:06:18.925Z,29.08
2022-09-23T21:08:46.366Z,28.73
2022-09-23T21:11:15.418Z,28.80
2022-09-23T21:13:47.143Z,28.95
2022-09-23T21:16:17.862Z,29.98
2022-09-23T21:18:45.729Z,28.10
2022-09-23T21:21:14.341Z,27.55
2022-09-23T21:26:11.422Z,27.27
2022-09-23T21:28:43.018Z,28.45
2022-09-23T21:31:22.724Z,28.35
2022-09-23T21:34:00.950Z,28.48
2022-09-23T21:36:38.781Z,27.20
2022-09-23T21:39:06.670Z,28.40
2022-09-23T21:41:33.826Z,28.80
2022-09-23T21:44:04.509Z,28.02
2022-09-23T21:46:33.878Z,29.35
2022-09-23T21:49:03.903Z,28.00
2022-09-23T21:51:37.727Z,29.20
2022-09-23T21:54:06.244Z,30.48
2022-09-23T21:59:02.470Z,28.75
2022-09-23T22:01:34.685Z,28.13
2022-09-23T22:04:07.884Z,29.90
2022-09-23T22:06:38.112Z,30.85
2022-09-23T22:09:08.900Z,30.85
2022-09-23T22:11:55.802Z,32.15
2022-09-23T22:14:25.926Z,32.15
2022-09-23T22:16:59.133Z,32.15
2022-09-23T22:19:28.304Z,32.05
2022-09-23T22:21:56.178Z,31.73
2022-09-23T22:24:23.284Z,31.63
2022-09-23T22:26:50.242Z,33.85
2022-09-23T22:29:36.313Z,31.95
2022-09-23T22:32:23.296Z,32.22
2022-09-23T22:34:51.928Z,30.98
2022-09-23T22:37:21.763Z,32.97
2022-09-23T22:39:48.711Z,32.88
2022-09-23T22:42:15.512Z,32.92
2022-09-23T22:44:42.303Z,31.05
2022-09-23T22:47:10.071Z,31.50
2022-09-23T22:49:37.053Z,31.40
2022-09-23T22:52:06.998Z,32.65
2022-09-23T22:54:34.555Z,32.40
2022-09-23T22:57:05.317Z,32.80
2022-09-23T22:59:32.033Z,32.75
2022-09-23T23:02:02.816Z,31.35
2022-09-23T23:04:30.229Z,32.15
2022-09-23T23:06:58.890Z,33.03
2022-09-23T23:09:26.194Z,31.27
2022-09-23T23:11:53.196Z,32.85
2022-09-23T23:14:20.198Z,33.85
2022-09-23T23:16:47.235Z,32.25
2022-09-23T23:19:17.127Z,33.00
2022-09-23T23:21:45.146Z,34.10
2022-09-23T23:24:22.373Z,34.30
2022-09-23T23:26:49.674Z,34.40
2022-09-23T23:29:18.168Z,33.88
2022-09-23T23:31:45.271Z,32.95
2022-09-23T23:34:14.096Z,33.40
2022-09-23T23:36:41.419Z,35.88
2022-09-23T23:39:08.439Z,34.58
2022-09-23T23:41:35.602Z,34.28
2022-09-23T23:44:02.772Z,35.80
2022-09-23T23:46:31.566Z,33.75
2022-09-23T23:48:59.239Z,35.22
2022-09-23T23:51:26.790Z,35.60
2022-09-23T23:53:54.423Z,34.97
2022-09-23T23:56:23.001Z,35.35
